createdAt,value
2023-01-05T00:01:50.999Z,98679.00
2023-01-05T00:04:18.128Z,98680.00
2023-01-05T00:06:45.373Z,98654.00
2023-01-05T00:09:18.449Z,98668.00
2023-01-05T00:12:03.816Z,98676.00
2023-01-05T00:14:51.885Z,98668.00
2023-01-05T00:17:41.218Z,98667.00
2023-01-05T00:20:40.007Z,98646.00
2023-01-05T00:23:08.079Z,98657.00
2023-01-05T00:25:40.824Z,98654.00
2023-01-05T00:28:08.411Z,98657.00
2023-01-05T00:30:43.865Z,98656.00
2023-01-05T00:33:16.787Z,98654.00
2023-01-05T00:35:44.195Z,98652.00
2023-01-05T00:38:11.399Z,98657.00
2023-01-05T00:40:38.373Z,98654.00
2023-01-05T00:43:05.725Z,98649.00
2023-01-05T00:45:32.767Z,98655.00
2023-01-05T00:47:59.748Z,98658.00
2023-01-05T00:50:27.058Z,98653.00
2023-01-05T00:52:53.955Z,98650.00
2023-01-05T00:55:20.817Z,98645.00
2023-01-05T00:57:47.661Z,98641.00
2023-01-05T01:00:19.089Z,98643.00
2023-01-05T01:02:46.690Z,98644.00
2023-01-05T01:05:14.176Z,98638.00
2023-01-05T01:07:41.158Z,98646.00
2023-01-05T01:10:09.261Z,98642.00
2023-01-05T01:12:36.269Z,98621.00
2023-01-05T01:15:04.251Z,98650.00
2023-01-05T01:17:32.451Z,98647.00
2023-01-05T01:19:59.337Z,98640.00
2023-01-05T01:22:26.307Z,98652.00
2023-01-05T01:24:53.154Z,98644.00
2023-01-05T01:27:20.028Z,98636.00
2023-01-05T01:29:46.895Z,98645.00
2023-01-05T01:32:13.790Z,98640.00
2023-01-05T01:34:40.669Z,98642.00
2023-01-05T01:50:14.698Z,98643.00
2023-01-05T01:52:46.877Z,98639.00
2023-01-05T01:55:14.537Z,98639.00
2023-01-05T01:57:43.790Z,98630.00
2023-01-05T02:00:14.713Z,98627.00
2023-01-05T02:02:41.982Z,98620.00
2023-01-05T02:05:11.864Z,98621.00
2023-01-05T02:07:46.112Z,98623.00
2023-01-05T02:10:16.513Z,98619.00
2023-01-05T02:13:31.225Z,98612.00
2023-01-05T02:16:27.181Z,98618.00
2023-01-05T02:19:39.791Z,98615.00
2023-01-05T02:23:03.784Z,98616.00
2023-01-05T02:26:16.296Z,98618.00
2023-01-05T02:29:01.926Z,98611.00
2023-01-05T02:31:40.976Z,98596.00
2023-01-05T02:34:18.541Z,98605.00
2023-01-05T02:36:50.299Z,98602.00
2023-01-05T02:39:25.155Z,98593.00
2023-01-05T02:42:10.378Z,98598.00
2023-01-05T02:44:37.231Z,98606.00
2023-01-05T02:47:28.285Z,98601.00
2023-01-05T02:50:02.969Z,98593.00
2023-01-05T02:52:41.058Z,98590.00
2023-01-05T02:55:15.244Z,98594.00
2023-01-05T02:57:56.366Z,98589.00
2023-01-05T03:00:35.470Z,98590.00
2023-01-05T03:03:40.235Z,98588.00
2023-01-05T03:06:32.993Z,98585.00
2023-01-05T03:09:04.526Z,98580.00
2023-01-05T03:12:12.490Z,98593.00
2023-01-05T03:14:55.432Z,98579.00
2023-01-05T03:17:44.362Z,98586.00
2023-01-05T03:20:15.600Z,98590.00
2023-01-05T03:23:06.965Z,98583.00
2023-01-05T03:25:57.715Z,98585.00
2023-01-05T03:28:50.826Z,98576.00
2023-01-05T03:31:52.104Z,98584.00
2023-01-05T03:34:50.785Z,98581.00
2023-01-05T03:37:25.828Z,98573.00
2023-01-05T03:39:53.095Z,98585.00
2023-01-05T03:42:20.764Z,98582.00
2023-01-05T03:44:49.912Z,98577.00
2023-01-05T03:47:16.834Z,98572.00
2023-01-05T03:49:43.699Z,98573.00
2023-01-05T03:52:10.783Z,98573.00
2023-01-05T03:54:37.632Z,98568.00
2023-01-05T03:57:04.492Z,98573.00
2023-01-05T03:59:31.559Z,98571.00
2023-01-05T04:01:58.410Z,98570.00
2023-01-05T04:04:25.365Z,98571.00
2023-01-05T04:06:52.217Z,98565.00
2023-01-05T04:09:19.025Z,98568.00
2023-01-05T04:11:45.867Z,98559.00
2023-01-05T04:14:12.720Z,98559.00
2023-01-05T04:16:39.894Z,98555.00
2023-01-05T04:19:06.750Z,98570.00
2023-01-05T04:21:33.567Z,98564.00
2023-01-05T04:24:00.415Z,98569.00
2023-01-05T04:26:27.262Z,98571.00
2023-01-05T04:28:54.153Z,98561.00
2023-01-05T04:31:21.144Z,98557.00
2023-01-05T04:33:47.994Z,98570.00
2023-01-05T04:36:14.847Z,98566.00
2023-01-05T04:38:41.665Z,98542.00
2023-01-05T04:41:08.537Z,98562.00
2023-01-05T04:43:35.372Z,98559.00
2023-01-05T04:46:02.325Z,98564.00
2023-01-05T04:48:29.342Z,98567.00
2023-01-05T04:50:56.472Z,98554.00
2023-01-05T04:53:24.369Z,98570.00
2023-01-05T04:55:52.483Z,98562.00
2023-01-05T04:58:20.393Z,98568.00
2023-01-05T05:00:49.705Z,98561.00
2023-01-05T05:03:16.979Z,98570.00
2023-01-05T05:05:43.901Z,98564.00
2023-01-05T05:08:10.760Z,98572.00
2023-01-05T05:10:38.169Z,98582.00
2023-01-05T05:13:04.946Z,98576.00
2023-01-05T05:15:31.808Z,98579.00
2023-01-05T05:17:59.568Z,98578.00
2023-01-05T05:20:28.804Z,98585.00
2023-01-05T05:22:55.659Z,98598.00
2023-01-05T05:25:22.568Z,98593.00
2023-01-05T05:27:49.439Z,98587.00
2023-01-05T05:30:16.539Z,98597.00
2023-01-05T05:32:44.623Z,98588.00
2023-01-05T05:35:11.767Z,98594.00
2023-01-05T05:37:38.610Z,98597.00
2023-01-05T05:40:06.340Z,98609.00
2023-01-05T05:42:33.167Z,98612.00
2023-01-05T05:45:00.761Z,98611.00
2023-01-05T05:47:27.637Z,98618.00
2023-01-05T05:49:54.514Z,98611.00
2023-01-05T05:52:21.380Z,98625.00
2023-01-05T05:54:48.203Z,98621.00
2023-01-05T05:57:15.173Z,98621.00
2023-01-05T05:59:42.011Z,98618.00
2023-01-05T06:02:08.918Z,98633.00
2023-01-05T06:04:35.896Z,98621.00
2023-01-05T06:07:02.715Z,98627.00
2023-01-05T06:09:29.560Z,98621.00
2023-01-05T06:11:56.614Z,98607.00
2023-01-05T06:14:23.465Z,98639.00
2023-01-05T06:16:50.337Z,98637.00
2023-01-05T06:19:17.205Z,98642.00
2023-01-05T06:21:44.160Z,98646.00
2023-01-05T06:24:11.004Z,98648.00
2023-01-05T06:26:37.825Z,98646.00
2023-01-05T06:29:04.709Z,98651.00
2023-01-05T06:31:31.670Z,98641.00
2023-01-05T06:33:58.535Z,98650.00
2023-01-05T06:36:25.415Z,98662.00
2023-01-05T06:38:52.266Z,98664.00
2023-01-05T06:41:19.157Z,98657.00
2023-01-05T06:43:46.012Z,98657.00
2023-01-05T06:46:13.050Z,98656.00
2023-01-05T06:48:40.056Z,98667.00
2023-01-05T06:51:06.920Z,98661.00
2023-01-05T06:53:33.770Z,98664.00
2023-01-05T06:56:00.632Z,98664.00
2023-01-05T06:58:27.475Z,98663.00
2023-01-05T07:00:55.045Z,98683.00
2023-01-05T07:03:23.703Z,98688.00
2023-01-05T07:05:52.085Z,98677.00
2023-01-05T07:08:18.955Z,98692.00
2023-01-05T07:10:45.798Z,98695.00
2023-01-05T07:13:15.383Z,98695.00
2023-01-05T07:15:42.235Z,98698.00
2023-01-05T07:18:09.164Z,98691.00
2023-01-05T07:20:36.053Z,98694.00
2023-01-05T07:23:02.975Z,98695.00
2023-01-05T07:25:31.667Z,98704.00
2023-01-05T07:27:58.905Z,98712.00
2023-01-05T07:30:25.872Z,98702.00
2023-01-05T07:32:52.871Z,98698.00
2023-01-05T07:35:19.709Z,98720.00
2023-01-05T07:37:46.601Z,98714.00
2023-01-05T07:40:16.258Z,98725.00
2023-01-05T07:42:43.094Z,98712.00
2023-01-05T07:45:10.651Z,98717.00
2023-01-05T07:47:39.995Z,98721.00
2023-01-05T07:50:07.776Z,98720.00
2023-01-05T07:52:34.661Z,98727.00
2023-01-05T07:55:01.553Z,98730.00
2023-01-05T07:57:28.439Z,98720.00
2023-01-05T07:59:55.377Z,98731.00
2023-01-05T08:02:24.563Z,98733.00
2023-01-05T08:04:51.439Z,98726.00
2023-01-05T08:07:18.279Z,98730.00
2023-01-05T08:10:03.940Z,98734.00
2023-01-05T08:12:33.414Z,98736.00
2023-01-05T08:15:00.203Z,98714.00
2023-01-05T08:17:27.050Z,98735.00
2023-01-05T08:19:53.916Z,98736.00
2023-01-05T08:22:20.754Z,98733.00
2023-01-05T08:24:47.562Z,98729.00
2023-01-05T08:27:14.397Z,98737.00
2023-01-05T08:29:41.319Z,98752.00
2023-01-05T08:32:08.814Z,98732.00
2023-01-05T08:34:35.877Z,98736.00
2023-01-05T08:37:02.699Z,98741.00
2023-01-05T08:39:29.577Z,98740.00
2023-01-05T08:42:02.297Z,98735.00
2023-01-05T08:44:29.747Z,98750.00
2023-01-05T08:46:58.079Z,98741.00
2023-01-05T08:49:25.017Z,98750.00
2023-01-05T08:51:51.856Z,98743.00
2023-01-05T08:54:18.705Z,98752.00
2023-01-05T08:56:45.635Z,98744.00
2023-01-05T08:59:14.097Z,98758.00
2023-01-05T09:01:41.163Z,98752.00
2023-01-05T09:04:08.749Z,98758.00
2023-01-05T09:06:35.931Z,98742.00
2023-01-05T09:09:02.920Z,98756.00
2023-01-05T09:11:30.052Z,98731.00
2023-01-05T09:14:00.556Z,98757.00
2023-01-05T09:19:17.926Z,98760.00
2023-01-05T09:21:44.982Z,98767.00
2023-01-05T09:24:13.142Z,98749.00
2023-01-05T09:26:41.697Z,98768.00
2023-01-05T09:29:09.783Z,98767.00
2023-01-05T09:31:36.677Z,98757.00
2023-01-05T09:34:04.042Z,98764.00
2023-01-05T09:36:32.255Z,98763.00
2023-01-05T09:38:59.247Z,98772.00
2023-01-05T09:41:49.605Z,98769.00
2023-01-05T09:44:43.990Z,98775.00
2023-01-05T09:47:37.851Z,98770.00
2023-01-05T09:50:21.400Z,98778.00
2023-01-05T09:52:50.719Z,98770.00
2023-01-05T09:55:21.247Z,98782.00
2023-01-05T09:58:06.522Z,98772.00
2023-01-05T10:00:34.591Z,98746.00
2023-01-05T10:03:44.740Z,98765.00
2023-01-05T10:06:03.681Z,98774.00
2023-01-05T10:08:40.510Z,98776.00
2023-01-05T10:11:58.474Z,98776.00
2023-01-05T10:14:42.698Z,98766.00
2023-01-05T10:20:26.475Z,98762.00
2023-01-05T10:22:58.589Z,98762.00
2023-01-05T10:25:47.777Z,98767.00
2023-01-05T10:28:34.050Z,98758.00
2023-01-05T10:31:06.992Z,98763.00
2023-01-05T10:33:58.940Z,98760.00
2023-01-05T10:37:07.551Z,98762.00
2023-01-05T10:40:02.219Z,98761.00
2023-01-05T10:42:43.647Z,98757.00
2023-01-05T10:45:16.384Z,98755.00
2023-01-05T10:47:46.135Z,98748.00
2023-01-05T10:50:54.973Z,98758.00
2023-01-05T10:53:26.642Z,98762.00
2023-01-05T10:56:24.270Z,98756.00
2023-01-05T10:59:12.091Z,98750.00
2023-01-05T11:01:46.136Z,98749.00
2023-01-05T11:04:33.288Z,98753.00
2023-01-05T11:07:07.174Z,98749.00
2023-01-05T11:09:40.516Z,98747.00
2023-01-05T11:12:20.272Z,98751.00
2023-01-05T11:14:58.492Z,98743.00
2023-01-05T11:17:29.181Z,98746.00
2023-01-05T11:19:57.863Z,98747.00
2023-01-05T11:22:40.127Z,98740.00
2023-01-05T11:25:21.661Z,98744.00
2023-01-05T11:28:09.291Z,98744.00
2023-01-05T11:30:38.982Z,98735.00
2023-01-05T11:33:24.683Z,98750.00
2023-01-05T11:35:52.337Z,98749.00
2023-01-05T11:38:29.547Z,98755.00
2023-01-05T11:41:00.080Z,98734.00
2023-01-05T11:43:32.484Z,98762.00
2023-01-05T11:46:05.228Z,98753.00
2023-01-05T11:48:36.216Z,98791.00
2023-01-05T11:51:03.688Z,98780.00
2023-01-05T11:53:33.524Z,98788.00
2023-01-05T11:56:24.182Z,98803.00
2023-01-05T11:58:55.125Z,98798.00
2023-01-05T12:01:55.550Z,98798.00
2023-01-05T12:04:43.148Z,98808.00
2023-01-05T12:07:34.356Z,98807.00
2023-01-05T12:10:33.168Z,98814.00
2023-01-05T12:13:21.596Z,98830.00
2023-01-05T12:16:12.923Z,98826.00
2023-01-05T12:19:26.092Z,98830.00
2023-01-05T12:22:38.624Z,98840.00
2023-01-05T12:25:42.290Z,98850.00
2023-01-05T12:28:41.023Z,98840.00
2023-01-05T12:35:00.579Z,98844.00
2023-01-05T12:37:39.219Z,98861.00
2023-01-05T12:40:37.171Z,98864.00
2023-01-05T12:43:16.014Z,98871.00
2023-01-05T12:46:40.474Z,98860.00
2023-01-05T12:49:17.843Z,98887.00
2023-01-05T12:51:53.945Z,98870.00
2023-01-05T12:54:44.070Z,98870.00
2023-01-05T12:57:45.228Z,98881.00
2023-01-05T13:00:18.301Z,98885.00
2023-01-05T13:02:57.074Z,98872.00
2023-01-05T13:05:53.505Z,98890.00
2023-01-05T13:08:38.997Z,98886.00
2023-01-05T13:11:17.648Z,98895.00
2023-01-05T13:13:51.361Z,98901.00
2023-01-05T13:16:27.166Z,98915.00
2023-01-05T13:19:08.466Z,98919.00
2023-01-05T13:21:42.676Z,98930.00
2023-01-05T13:24:33.788Z,98945.00
2023-01-05T13:27:03.379Z,98930.00
2023-01-05T13:29:43.997Z,98933.00
2023-01-05T13:32:37.545Z,98944.00
2023-01-05T13:35:36.448Z,98950.00
2023-01-05T13:38:39.888Z,98966.00
2023-01-05T13:41:39.741Z,98962.00
2023-01-05T13:44:15.568Z,98976.00
2023-01-05T13:47:27.606Z,98980.00
2023-01-05T13:50:34.275Z,98992.00
2023-01-05T13:53:11.933Z,98998.00
2023-01-05T13:55:57.508Z,99009.00
2023-01-05T13:58:52.742Z,99005.00
2023-01-05T14:01:38.427Z,99013.00
2023-01-05T14:04:17.710Z,99020.00
2023-01-05T14:06:49.118Z,99023.00
2023-01-05T14:09:39.920Z,99030.00
2023-01-05T14:12:12.066Z,99047.00
2023-01-05T14:15:12.205Z,99067.00
2023-01-05T14:17:58.530Z,99071.00
2023-01-05T14:20:45.078Z,99088.00
2023-01-05T14:23:24.033Z,99092.00
2023-01-05T14:26:10.440Z,99097.00
2023-01-05T14:28:44.823Z,99107.00
2023-01-05T14:31:13.772Z,99123.00
2023-01-05T14:34:09.976Z,99142.00
2023-01-05T14:37:22.888Z,99144.00
2023-01-05T14:40:00.440Z,99165.00
2023-01-05T14:42:39.868Z,99165.00
2023-01-05T14:45:21.521Z,99166.00
2023-01-05T14:47:54.001Z,99193.00
2023-01-05T14:50:32.338Z,99226.00
2023-01-05T14:53:02.391Z,99233.00
2023-01-05T14:55:39.827Z,99237.00
2023-01-05T14:58:15.064Z,99262.00
2023-01-05T15:01:01.783Z,99273.00
2023-01-05T15:03:35.416Z,99282.00
2023-01-05T15:06:08.176Z,99283.00
2023-01-05T15:09:17.912Z,99287.00
2023-01-05T15:12:15.683Z,99297.00
2023-01-05T15:15:22.792Z,99308.00
2023-01-05T15:18:23.858Z,99306.00
2023-01-05T15:21:33.919Z,99325.00
2023-01-05T15:24:50.526Z,99331.00
2023-01-05T15:27:51.137Z,99362.00
2023-01-05T15:30:43.001Z,99335.00
2023-01-05T15:33:26.788Z,99378.00
2023-01-05T15:36:03.547Z,99395.00
2023-01-05T15:38:43.076Z,99400.00
2023-01-05T15:41:14.451Z,99408.00
2023-01-05T15:43:45.130Z,99419.00
2023-01-05T15:46:13.106Z,99440.00
2023-01-05T15:48:47.448Z,99444.00
2023-01-05T15:51:30.437Z,99462.00
2023-01-05T15:54:05.369Z,99453.00
2023-01-05T15:56:41.199Z,99368.00
2023-01-05T15:59:26.770Z,99475.00
2023-01-05T16:01:53.909Z,99478.00
2023-01-05T16:04:21.102Z,99492.00
2023-01-05T16:06:58.373Z,99481.00
2023-01-05T16:09:30.518Z,99506.00
2023-01-05T16:12:08.707Z,99511.00
2023-01-05T16:14:46.408Z,99519.00
2023-01-05T16:17:22.045Z,99536.00
2023-01-05T16:19:56.448Z,99536.00
2023-01-05T16:22:42.689Z,99539.00
2023-01-05T16:25:22.044Z,99547.00
2023-01-05T16:28:03.403Z,99563.00
2023-01-05T16:30:40.466Z,99556.00
2023-01-05T16:33:34.491Z,99539.00
2023-01-05T16:36:20.402Z,99570.00
2023-01-05T16:38:48.385Z,99582.00
2023-01-05T16:41:26.381Z,99600.00
2023-01-05T16:44:02.405Z,99595.00
2023-01-05T16:46:32.247Z,99611.00
2023-01-05T16:49:20.255Z,99617.00
2023-01-05T16:51:47.626Z,99622.00
2023-01-05T16:54:24.505Z,99622.00
2023-01-05T16:57:01.678Z,99630.00
2023-01-05T16:59:50.129Z,99640.00
2023-01-05T17:02:46.429Z,99642.00
2023-01-05T17:05:18.059Z,99654.00
2023-01-05T17:07:47.914Z,99659.00
2023-01-05T17:10:23.590Z,99674.00
2023-01-05T17:12:59.221Z,99674.00
2023-01-05T17:15:31.078Z,99688.00
2023-01-05T17:17:58.576Z,99690.00
2023-01-05T17:20:40.852Z,99704.00
2023-01-05T17:23:25.361Z,99701.00
2023-01-05T17:25:54.806Z,99728.00
2023-01-05T17:28:24.869Z,99733.00
2023-01-05T17:30:53.349Z,99740.00
2023-01-05T17:33:20.450Z,99745.00
2023-01-05T17:38:20.616Z,99767.00
2023-01-05T17:40:47.917Z,99763.00
2023-01-05T17:43:14.917Z,99773.00
2023-01-05T17:45:44.324Z,99779.00
2023-01-05T17:50:45.045Z,99795.00
2023-01-05T17:53:12.074Z,99801.00
2023-01-05T17:55:39.135Z,99798.00
2023-01-05T17:58:06.158Z,99800.00
2023-01-05T18:00:39.577Z,99812.00
2023-01-05T18:03:06.490Z,99812.00
2023-01-05T18:05:33.365Z,99824.00
2023-01-05T18:08:00.266Z,99829.00
2023-01-05T18:10:29.100Z,99831.00
2023-01-05T18:12:56.796Z,99838.00
2023-01-05T18:15:23.748Z,99844.00
2023-01-05T18:17:50.607Z,99854.00
2023-01-05T18:20:19.963Z,99858.00
2023-01-05T18:22:48.740Z,99883.00
2023-01-05T18:25:16.877Z,99889.00
2023-01-05T18:27:45.379Z,99899.00
2023-01-05T18:30:14.021Z,99892.00
2023-01-05T18:32:41.701Z,99914.00
2023-01-05T18:35:10.682Z,99912.00
2023-01-05T18:37:39.987Z,99928.00
2023-01-05T18:40:09.062Z,99930.00
2023-01-05T18:42:37.761Z,99941.00
2023-01-05T18:45:18.922Z,99938.00
2023-01-05T18:47:57.303Z,99946.00
2023-01-05T18:50:25.450Z,99937.00
2023-01-05T18:52:52.797Z,99955.00
2023-01-05T18:55:19.665Z,99954.00
2023-01-05T18:57:46.514Z,99966.00
2023-01-05T19:00:14.271Z,99986.00
2023-01-05T19:02:41.180Z,100004.00
2023-01-05T19:05:08.962Z,99983.00
2023-01-05T19:07:36.675Z,100002.00
2023-01-05T19:10:03.623Z,100016.00
2023-01-05T19:12:30.500Z,100016.00
2023-01-05T19:14:57.358Z,100017.00
2023-01-05T19:17:24.229Z,100026.00
2023-01-05T19:19:51.341Z,100023.00
2023-01-05T19:22:18.360Z,100030.00
2023-01-05T19:24:45.196Z,100033.00
2023-01-05T19:27:12.015Z,100043.00
2023-01-05T19:29:38.954Z,100048.00
2023-01-05T19:32:06.162Z,100044.00
2023-01-05T19:34:33.130Z,100052.00
2023-01-05T19:37:00.127Z,100068.00
2023-01-05T19:39:27.167Z,100070.00
2023-01-05T19:41:54.142Z,100077.00
2023-01-05T19:44:22.501Z,100089.00
2023-01-05T19:46:56.810Z,100091.00
2023-01-05T19:49:27.562Z,100089.00
2023-01-05T19:51:55.112Z,100097.00
2023-01-05T19:54:25.248Z,100111.00
2023-01-05T19:56:57.319Z,100110.00
2023-01-05T19:59:33.315Z,100110.00
2023-01-05T20:02:06.019Z,100118.00
2023-01-05T20:04:33.661Z,100126.00
2023-01-05T20:07:03.991Z,100126.00
2023-01-05T20:09:32.098Z,100123.00
2023-01-05T20:12:09.216Z,100140.00
2023-01-05T20:14:41.378Z,100133.00
2023-01-05T20:17:10.984Z,100142.00
2023-01-05T20:19:39.608Z,100147.00
2023-01-05T20:22:11.837Z,100157.00
2023-01-05T20:24:38.970Z,100154.00
2023-01-05T20:27:11.424Z,100153.00
2023-01-05T20:29:40.537Z,100170.00
2023-01-05T20:32:15.398Z,100173.00
2023-01-05T20:34:45.263Z,100184.00
2023-01-05T20:37:12.974Z,100194.00
2023-01-05T20:39:41.665Z,100195.00
2023-01-05T20:42:10.948Z,100195.00
2023-01-05T20:44:43.921Z,100195.00
2023-01-05T20:47:11.618Z,100208.00
2023-01-05T20:49:40.621Z,100213.00
2023-01-05T20:52:10.382Z,100218.00
2023-01-05T20:54:38.431Z,100229.00
2023-01-05T20:57:06.344Z,100222.00
2023-01-05T20:59:35.723Z,100241.00
2023-01-05T21:02:05.730Z,100243.00
2023-01-05T21:04:34.699Z,100261.00
2023-01-05T21:07:01.624Z,100262.00
2023-01-05T21:09:30.571Z,100269.00
2023-01-05T21:11:59.843Z,100253.00
2023-01-05T21:14:26.979Z,100289.00
2023-01-05T21:16:56.253Z,100293.00
2023-01-05T21:19:24.775Z,100297.00
2023-01-05T21:21:57.755Z,100301.00
2023-01-05T21:24:26.183Z,100291.00
2023-01-05T21:26:54.873Z,100290.00
2023-01-05T21:29:25.897Z,100294.00
2023-01-05T21:31:55.703Z,100306.00
2023-01-05T21:34:23.766Z,100309.00
2023-01-05T21:36:50.824Z,100305.00
2023-01-05T21:39:22.323Z,100316.00
2023-01-05T21:42:09.596Z,100318.00
2023-01-05T21:44:36.968Z,100313.00
2023-01-05T21:47:06.556Z,100323.00
2023-01-05T21:49:35.036Z,100312.00
2023-01-05T21:52:20.714Z,100348.00
2023-01-05T21:55:06.250Z,100350.00
2023-01-05T21:57:33.080Z,100368.00
2023-01-05T21:59:59.993Z,100363.00
2023-01-05T22:02:26.841Z,100371.00
2023-01-05T22:04:53.707Z,100364.00
2023-01-05T22:07:20.561Z,100364.00
2023-01-05T22:09:47.563Z,100383.00
2023-01-05T22:12:14.485Z,100387.00
2023-01-05T22:14:41.449Z,100395.00
2023-01-05T22:17:09.789Z,100400.00
2023-01-05T22:19:37.246Z,100392.00
2023-01-05T22:22:04.714Z,100404.00
2023-01-05T22:24:31.700Z,100425.00
2023-01-05T22:26:58.846Z,100431.00
2023-01-05T22:29:25.853Z,100438.00
2023-01-05T22:31:53.997Z,100443.00
2023-01-05T22:34:24.864Z,100431.00
2023-01-05T22:36:51.831Z,100449.00
2023-01-05T22:39:18.761Z,100454.00
2023-01-05T22:41:46.471Z,100457.00
2023-01-05T22:44:13.743Z,100465.00
2023-01-05T22:46:41.257Z,100451.00
2023-01-05T22:49:12.833Z,100457.00
2023-01-05T22:51:41.264Z,100475.00
2023-01-05T22:54:08.164Z,100473.00
2023-01-05T22:56:35.952Z,100457.00
2023-01-05T22:59:03.350Z,100475.00
2023-01-05T23:01:37.278Z,100462.00
2023-01-05T23:04:06.960Z,100480.00
2023-01-05T23:06:34.519Z,100489.00
2023-01-05T23:09:04.254Z,100490.00
2023-01-05T23:11:38.771Z,100491.00
2023-01-05T23:14:08.466Z,100447.00
2023-01-05T23:16:36.299Z,100482.00
2023-01-05T23:19:05.840Z,100488.00
2023-01-05T23:21:33.375Z,100478.00
2023-01-05T23:24:00.330Z,100508.00
2023-01-05T23:26:28.174Z,100508.00
2023-01-05T23:28:55.667Z,100497.00
2023-01-05T23:31:23.454Z,100523.00
2023-01-05T23:33:50.398Z,100521.00
2023-01-05T23:36:20.081Z,100518.00
2023-01-05T23:38:47.461Z,100512.00
2023-01-05T23:41:16.888Z,100515.00
2023-01-05T23:43:45.752Z,100489.00
2023-01-05T23:46:22.159Z,100524.00
2023-01-05T23:48:51.845Z,100535.00
2023-01-05T23:51:21.791Z,100527.00
2023-01-05T23:53:51.974Z,100537.00
2023-01-05T23:56:28.883Z,100542.00
2023-01-05T23:59:05.365Z,100532.00
